createdAt,value
2022-12-31T00:01:43.693Z,77.99
2022-12-31T00:04:46.497Z,78.19
2022-12-31T00:07:49.272Z,77.99
2022-12-31T00:10:52.105Z,77.86
2022-12-31T00:13:55.652Z,77.50
2022-12-31T00:16:58.523Z,77.09
2022-12-31T00:20:01.410Z,77.28
2022-12-31T00:23:04.231Z,77.27
2022-12-31T00:26:16.958Z,77.10
2022-12-31T00:29:19.786Z,77.27
2022-12-31T00:32:22.637Z,77.48
2022-12-31T00:35:25.497Z,77.64
2022-12-31T00:38:28.286Z,77.92
2022-12-31T00:41:31.488Z,77.68
2022-12-31T00:44:34.249Z,78.07
2022-12-31T00:47:37.061Z,77.92
2022-12-31T00:50:39.830Z,78.12
2022-12-31T00:53:43.434Z,78.46
2022-12-31T00:56:46.359Z,78.81
2022-12-31T00:59:49.153Z,78.70
2022-12-31T01:02:52.070Z,78.69
2022-12-31T01:05:59.894Z,79.00
2022-12-31T01:09:02.744Z,79.18
2022-12-31T01:12:05.752Z,79.45
2022-12-31T01:15:08.743Z,79.38
2022-12-31T01:18:11.696Z,79.28
2022-12-31T01:21:15.763Z,79.15
2022-12-31T01:24:18.583Z,79.21
2022-12-31T01:27:21.398Z,79.20
2022-12-31T01:30:24.183Z,79.27
2022-12-31T01:33:26.993Z,79.11
2022-12-31T01:36:31.974Z,79.30
2022-12-31T01:39:34.750Z,79.39
2022-12-31T01:42:37.625Z,79.48
2022-12-31T01:45:42.224Z,79.81
2022-12-31T01:48:50.205Z,79.87
2022-12-31T01:52:24.328Z,79.85
2022-12-31T01:55:30.533Z,79.83
2022-12-31T01:58:44.303Z,79.85
2022-12-31T02:01:48.909Z,79.59
2022-12-31T02:04:56.123Z,79.72
2022-12-31T02:07:59.035Z,79.68
2022-12-31T02:11:02.059Z,79.53
2022-12-31T02:14:10.017Z,79.73
2022-12-31T02:17:25.025Z,79.81
2022-12-31T02:21:03.573Z,79.86
2022-12-31T02:24:06.376Z,79.80
2022-12-31T02:27:23.929Z,79.86
2022-12-31T02:30:31.357Z,79.93
2022-12-31T02:33:41.320Z,80.12
2022-12-31T02:36:47.567Z,80.11
2022-12-31T02:39:51.466Z,80.14
2022-12-31T02:42:55.701Z,79.98
2022-12-31T02:46:20.396Z,80.01
2022-12-31T02:49:53.800Z,80.22
2022-12-31T02:52:59.648Z,80.46
2022-12-31T02:56:14.491Z,80.43
2022-12-31T02:59:47.137Z,80.46
2022-12-31T03:02:52.239Z,80.55
2022-12-31T03:05:57.413Z,80.64
2022-12-31T03:09:14.835Z,80.75
2022-12-31T03:12:38.842Z,80.96
2022-12-31T03:15:41.643Z,81.09
2022-12-31T03:19:13.972Z,81.19
2022-12-31T03:22:29.153Z,81.07
2022-12-31T03:25:49.766Z,80.91
2022-12-31T03:28:52.535Z,80.99
2022-12-31T03:31:55.351Z,80.98
2022-12-31T03:34:58.113Z,80.77
2022-12-31T03:38:02.177Z,80.82
2022-12-31T03:41:05.702Z,80.63
2022-12-31T03:44:08.515Z,80.61
2022-12-31T03:47:11.387Z,80.47
2022-12-31T03:50:16.722Z,80.23
2022-12-31T03:53:20.298Z,79.82
2022-12-31T03:56:23.072Z,79.56
2022-12-31T03:59:26.020Z,79.51
2022-12-31T04:02:29.617Z,79.18
2022-12-31T04:05:33.858Z,79.14
2022-12-31T04:08:36.623Z,78.99
2022-12-31T04:11:39.495Z,79.09
2022-12-31T04:14:42.724Z,79.16
2022-12-31T04:17:45.761Z,79.20
2022-12-31T04:20:48.700Z,79.13
2022-12-31T04:23:51.546Z,79.23
2022-12-31T04:26:54.356Z,79.34
2022-12-31T04:29:57.113Z,79.19
2022-12-31T04:32:59.990Z,79.49
2022-12-31T04:36:07.886Z,79.41
2022-12-31T04:39:10.666Z,79.63
2022-12-31T04:42:13.507Z,79.70
2022-12-31T04:45:16.449Z,79.82
2022-12-31T04:48:19.283Z,79.58
2022-12-31T04:51:22.861Z,79.54
2022-12-31T04:54:25.679Z,79.39
2022-12-31T04:57:28.460Z,79.37
2022-12-31T05:00:31.231Z,79.36
2022-12-31T05:03:35.355Z,79.54
2022-12-31T05:06:38.135Z,79.51
2022-12-31T05:09:40.940Z,79.47
2022-12-31T05:12:43.742Z,79.53
2022-12-31T05:15:46.983Z,79.57
2022-12-31T05:18:49.794Z,79.67
2022-12-31T05:22:11.340Z,79.99
2022-12-31T05:25:14.309Z,80.31
2022-12-31T05:28:17.559Z,80.21
2022-12-31T05:31:20.418Z,80.28
2022-12-31T05:34:23.230Z,80.13
2022-12-31T05:37:27.851Z,80.14
2022-12-31T05:40:30.800Z,80.21
2022-12-31T05:43:34.325Z,80.18
2022-12-31T05:46:37.103Z,80.17
2022-12-31T05:49:40.006Z,80.01
2022-12-31T05:52:47.423Z,79.97
2022-12-31T05:55:50.855Z,79.85
2022-12-31T05:58:53.830Z,79.81
2022-12-31T06:01:57.152Z,79.81
2022-12-31T06:04:59.967Z,79.72
2022-12-31T06:08:02.970Z,79.56
2022-12-31T06:11:05.816Z,79.77
2022-12-31T06:14:08.759Z,79.52
2022-12-31T06:17:11.701Z,79.63
2022-12-31T06:20:14.525Z,79.42
2022-12-31T06:23:17.376Z,79.43
2022-12-31T06:26:20.275Z,79.39
2022-12-31T06:29:23.102Z,79.48
2022-12-31T06:32:25.866Z,79.45
2022-12-31T06:35:28.847Z,79.56
2022-12-31T06:38:34.128Z,79.59
2022-12-31T06:41:37.428Z,79.90
2022-12-31T06:44:40.404Z,79.93
2022-12-31T06:47:43.316Z,80.11
2022-12-31T06:50:46.139Z,80.29
2022-12-31T06:53:50.876Z,80.49
2022-12-31T06:56:54.100Z,81.02
2022-12-31T06:59:57.466Z,80.96
2022-12-31T07:03:09.651Z,80.74
2022-12-31T07:06:23.518Z,80.82
2022-12-31T07:09:42.941Z,80.67
2022-12-31T07:13:17.624Z,80.66
2022-12-31T07:16:35.685Z,80.70
2022-12-31T07:19:57.896Z,80.81
2022-12-31T07:23:01.289Z,80.96
2022-12-31T07:26:11.074Z,81.00
2022-12-31T07:29:23.675Z,80.71
2022-12-31T07:32:36.106Z,80.46
2022-12-31T07:35:47.996Z,80.24
2022-12-31T07:38:57.273Z,79.87
2022-12-31T07:42:43.769Z,79.66
2022-12-31T07:45:49.972Z,79.45
2022-12-31T07:48:52.840Z,79.52
2022-12-31T07:51:56.127Z,79.38
2022-12-31T07:54:58.884Z,79.28
2022-12-31T07:58:19.284Z,79.35
2022-12-31T08:01:47.896Z,79.18
2022-12-31T08:05:11.051Z,79.09
2022-12-31T08:08:39.820Z,78.91
2022-12-31T08:11:55.597Z,78.48
2022-12-31T08:14:58.697Z,77.95
2022-12-31T08:18:01.799Z,77.26
2022-12-31T08:21:17.557Z,76.81
2022-12-31T08:24:40.515Z,76.23
2022-12-31T08:28:02.277Z,76.32
2022-12-31T08:31:31.516Z,76.21
2022-12-31T08:34:52.863Z,76.00
2022-12-31T08:38:13.717Z,75.82
2022-12-31T08:41:27.098Z,75.44
2022-12-31T08:44:39.716Z,75.26
2022-12-31T08:48:04.701Z,75.37
2022-12-31T08:51:14.766Z,75.42
2022-12-31T08:54:17.793Z,75.60
2022-12-31T08:57:26.326Z,75.83
2022-12-31T09:00:30.675Z,75.98
2022-12-31T09:03:55.679Z,75.84
2022-12-31T09:07:03.052Z,75.98
2022-12-31T09:10:24.930Z,76.11
2022-12-31T09:13:49.491Z,76.40
2022-12-31T09:17:08.591Z,76.34
2022-12-31T09:20:17.180Z,76.07
2022-12-31T09:23:20.643Z,76.00
2022-12-31T09:27:06.194Z,75.86
2022-12-31T09:30:13.245Z,75.83
2022-12-31T09:33:57.700Z,75.79
2022-12-31T09:37:07.318Z,75.63
2022-12-31T09:40:28.421Z,75.54
2022-12-31T09:44:05.411Z,75.27
2022-12-31T09:47:34.574Z,75.11
2022-12-31T09:51:10.205Z,74.89
2022-12-31T09:54:20.501Z,74.48
2022-12-31T09:58:05.809Z,74.11
2022-12-31T10:01:11.830Z,73.98
2022-12-31T10:04:33.597Z,73.83
2022-12-31T10:08:25.903Z,73.51
2022-12-31T10:12:03.271Z,73.37
2022-12-31T10:15:29.043Z,73.17
2022-12-31T10:19:07.729Z,72.75
2022-12-31T10:22:41.809Z,72.28
2022-12-31T10:26:05.219Z,72.04
2022-12-31T10:29:26.404Z,71.80
2022-12-31T10:32:51.305Z,71.43
2022-12-31T10:36:05.273Z,71.23
2022-12-31T10:39:22.184Z,71.30
2022-12-31T10:42:50.222Z,70.94
2022-12-31T10:46:30.135Z,70.88
2022-12-31T10:49:51.034Z,70.60
2022-12-31T10:53:13.069Z,70.51
2022-12-31T10:56:27.965Z,70.60
2022-12-31T11:00:22.670Z,70.59
2022-12-31T11:03:57.903Z,71.18
2022-12-31T11:07:16.018Z,71.34
2022-12-31T11:10:44.250Z,71.39
2022-12-31T11:13:47.002Z,71.17
2022-12-31T11:17:04.522Z,71.03
2022-12-31T11:20:39.548Z,70.82
2022-12-31T11:24:06.094Z,70.61
2022-12-31T11:27:14.898Z,70.55
2022-12-31T11:30:31.255Z,70.52
2022-12-31T11:33:58.487Z,70.42
2022-12-31T11:37:26.401Z,70.26
2022-12-31T11:40:54.717Z,70.60
2022-12-31T11:44:35.215Z,70.82
2022-12-31T11:48:04.227Z,71.41
2022-12-31T11:51:09.867Z,71.67
2022-12-31T11:54:21.720Z,71.88
2022-12-31T11:57:37.398Z,72.13
2022-12-31T12:00:47.526Z,72.14
2022-12-31T12:03:50.472Z,72.18
2022-12-31T12:06:53.538Z,72.19
2022-12-31T12:09:58.394Z,72.16
2022-12-31T12:13:01.202Z,72.04
2022-12-31T12:16:07.593Z,71.78
2022-12-31T12:19:18.021Z,71.79
2022-12-31T12:22:25.893Z,71.91
2022-12-31T12:25:40.874Z,72.08
2022-12-31T12:28:46.302Z,72.49
2022-12-31T12:32:17.065Z,72.51
2022-12-31T12:35:27.181Z,72.91
2022-12-31T12:38:29.970Z,72.97
2022-12-31T12:41:32.899Z,73.12
2022-12-31T12:44:36.095Z,73.04
2022-12-31T12:47:43.284Z,73.23
2022-12-31T12:50:48.740Z,73.20
2022-12-31T12:53:58.707Z,73.31
2022-12-31T12:57:07.639Z,73.47
2022-12-31T13:00:16.668Z,73.87
2022-12-31T13:07:46.926Z,74.05
2022-12-31T13:11:19.086Z,74.23
2022-12-31T13:14:42.628Z,74.10
2022-12-31T13:18:01.848Z,73.98
2022-12-31T13:21:23.857Z,73.85
2022-12-31T13:24:45.639Z,73.87
2022-12-31T13:27:52.127Z,73.76
2022-12-31T13:31:07.274Z,73.81
2022-12-31T13:34:23.328Z,73.75
2022-12-31T13:37:33.981Z,73.81
2022-12-31T13:41:00.140Z,73.75
2022-12-31T13:44:08.640Z,73.47
2022-12-31T13:47:20.460Z,73.37
2022-12-31T13:50:41.857Z,73.01
2022-12-31T13:53:57.781Z,72.82
2022-12-31T13:57:05.893Z,72.74
2022-12-31T14:00:17.918Z,72.73
2022-12-31T14:03:40.431Z,72.74
2022-12-31T14:06:51.480Z,73.01
2022-12-31T14:09:54.717Z,73.14
2022-12-31T14:13:34.172Z,73.23
2022-12-31T14:16:55.214Z,73.39
2022-12-31T14:20:14.360Z,73.42
2022-12-31T14:23:34.606Z,73.49
2022-12-31T14:26:42.586Z,73.62
2022-12-31T14:29:52.111Z,73.59
2022-12-31T14:33:12.122Z,73.92
2022-12-31T14:36:24.032Z,73.71
2022-12-31T14:39:37.811Z,73.62
2022-12-31T14:42:49.653Z,73.64
2022-12-31T14:46:18.880Z,73.73
2022-12-31T14:49:46.680Z,73.96
2022-12-31T14:53:07.995Z,73.99
2022-12-31T14:56:41.551Z,74.17
2022-12-31T14:59:58.453Z,74.10
2022-12-31T15:03:25.117Z,74.17
2022-12-31T15:06:47.377Z,74.23
2022-12-31T15:10:14.978Z,74.32
2022-12-31T15:13:49.290Z,74.22
2022-12-31T15:17:09.766Z,74.02
2022-12-31T15:20:37.907Z,73.93
2022-12-31T15:23:46.281Z,74.00
2022-12-31T15:27:01.953Z,73.70
2022-12-31T15:30:07.195Z,73.43
2022-12-31T15:33:17.610Z,73.55
2022-12-31T15:36:24.243Z,73.57
2022-12-31T15:39:39.583Z,73.45
2022-12-31T15:42:50.327Z,73.53
2022-12-31T15:45:55.566Z,73.53
2022-12-31T15:49:11.758Z,73.21
2022-12-31T15:52:29.469Z,73.28
2022-12-31T15:55:48.628Z,73.26
2022-12-31T15:58:56.923Z,73.31
2022-12-31T16:01:59.938Z,73.43
2022-12-31T16:05:02.900Z,73.51
2022-12-31T16:08:06.283Z,73.48
2022-12-31T16:11:10.261Z,73.53
2022-12-31T16:14:22.282Z,73.32
2022-12-31T16:17:33.559Z,73.12
2022-12-31T16:20:43.215Z,73.10
2022-12-31T16:23:51.249Z,72.91
2022-12-31T16:26:57.259Z,72.98
2022-12-31T16:30:07.601Z,73.02
2022-12-31T16:33:14.526Z,73.14
2022-12-31T16:36:23.013Z,73.28
2022-12-31T16:39:31.055Z,73.45
2022-12-31T16:42:42.435Z,73.61
2022-12-31T16:45:47.248Z,73.81
2022-12-31T16:48:55.241Z,73.97
2022-12-31T16:52:04.843Z,74.03
2022-12-31T16:55:10.474Z,74.06
2022-12-31T16:58:34.709Z,74.28
2022-12-31T17:01:38.548Z,74.72
2022-12-31T17:04:48.037Z,74.47
2022-12-31T17:07:54.954Z,74.34
2022-12-31T17:10:57.829Z,74.29
2022-12-31T17:14:13.953Z,74.39
2022-12-31T17:17:26.367Z,74.43
2022-12-31T17:20:31.749Z,74.42
2022-12-31T17:23:37.008Z,74.36
2022-12-31T17:26:39.942Z,74.28
2022-12-31T17:29:44.283Z,74.27
2022-12-31T17:32:50.110Z,74.24
2022-12-31T17:36:23.757Z,74.29
2022-12-31T17:39:38.813Z,74.31
2022-12-31T17:42:41.744Z,74.34
2022-12-31T17:45:46.477Z,74.40
2022-12-31T17:49:00.982Z,74.17
2022-12-31T17:52:03.959Z,74.12
2022-12-31T17:55:06.964Z,74.32
2022-12-31T17:58:29.664Z,74.32
2022-12-31T18:01:33.238Z,74.59
2022-12-31T18:04:36.061Z,74.89
2022-12-31T18:07:38.852Z,75.11
2022-12-31T18:10:44.410Z,75.18
2022-12-31T18:13:47.357Z,75.26
2022-12-31T18:16:50.314Z,75.19
2022-12-31T18:20:08.641Z,75.15
2022-12-31T18:23:20.771Z,75.00
2022-12-31T18:26:24.498Z,74.83
2022-12-31T18:29:27.312Z,74.79
2022-12-31T18:32:34.186Z,74.95
2022-12-31T18:38:59.962Z,75.53
2022-12-31T18:42:02.801Z,76.44
2022-12-31T18:45:15.317Z,76.08
2022-12-31T18:48:19.075Z,75.52
2022-12-31T18:51:31.382Z,75.35
2022-12-31T18:54:35.079Z,75.14
2022-12-31T18:57:37.866Z,74.88
2022-12-31T19:00:41.195Z,74.75
2022-12-31T19:03:44.038Z,74.80
2022-12-31T19:06:47.864Z,74.95
2022-12-31T19:09:56.368Z,75.21
2022-12-31T19:13:01.185Z,75.58
2022-12-31T19:16:04.135Z,75.52
2022-12-31T19:19:08.719Z,75.06
2022-12-31T19:22:15.307Z,74.48
2022-12-31T19:25:19.658Z,73.94
2022-12-31T19:28:25.242Z,73.61
2022-12-31T19:31:28.120Z,73.31
2022-12-31T19:34:30.964Z,73.04
2022-12-31T19:37:33.795Z,72.85
2022-12-31T19:40:36.624Z,72.83
2022-12-31T19:43:39.494Z,72.85
2022-12-31T19:46:42.369Z,72.86
2022-12-31T19:49:45.326Z,72.83
2022-12-31T19:52:50.058Z,72.65
2022-12-31T19:55:53.596Z,72.62
2022-12-31T19:58:56.383Z,72.42
2022-12-31T20:01:59.327Z,72.74
2022-12-31T20:05:02.415Z,73.05
2022-12-31T20:08:05.390Z,73.75
2022-12-31T20:11:17.483Z,74.54
2022-12-31T20:14:20.341Z,74.40
2022-12-31T20:17:23.266Z,73.89
2022-12-31T20:20:29.480Z,73.56
2022-12-31T20:23:35.395Z,73.96
2022-12-31T20:26:38.392Z,74.35
2022-12-31T20:29:41.211Z,74.61
2022-12-31T20:32:44.155Z,74.77
2022-12-31T20:35:47.230Z,74.95
2022-12-31T20:38:50.439Z,75.15
2022-12-31T20:45:40.516Z,75.22
2022-12-31T20:48:45.039Z,75.32
2022-12-31T20:51:52.091Z,75.32
2022-12-31T20:54:55.281Z,75.40
2022-12-31T20:57:58.319Z,75.31
2022-12-31T21:01:01.694Z,75.24
2022-12-31T21:04:06.673Z,74.99
2022-12-31T21:07:09.783Z,74.88
2022-12-31T21:10:12.721Z,74.65
2022-12-31T21:13:15.757Z,74.71
2022-12-31T21:16:18.855Z,74.71
2022-12-31T21:19:21.694Z,74.76
2022-12-31T21:22:24.813Z,74.77
2022-12-31T21:25:27.671Z,74.88
2022-12-31T21:28:30.507Z,75.04
2022-12-31T21:31:33.480Z,75.21
2022-12-31T21:34:36.447Z,75.30
2022-12-31T21:37:59.126Z,75.44
2022-12-31T21:41:03.796Z,75.33
2022-12-31T21:44:06.762Z,75.21
2022-12-31T21:47:38.652Z,75.03
2022-12-31T21:50:46.042Z,74.99
2022-12-31T21:53:49.105Z,74.99
2022-12-31T21:56:51.907Z,74.97
2022-12-31T22:00:41.266Z,74.98
2022-12-31T22:03:36.620Z,74.79
2022-12-31T22:06:39.453Z,74.81
2022-12-31T22:09:42.271Z,74.79
2022-12-31T22:12:45.539Z,74.81
2022-12-31T22:15:52.142Z,74.70
2022-12-31T22:18:56.088Z,74.55
2022-12-31T22:21:58.934Z,74.35
2022-12-31T22:25:01.859Z,74.20
2022-12-31T22:28:37.508Z,74.03
2022-12-31T22:31:30.537Z,74.01
2022-12-31T22:34:33.499Z,73.94
2022-12-31T22:37:56.334Z,73.98
2022-12-31T22:41:08.094Z,73.97
2022-12-31T22:44:11.088Z,73.96
2022-12-31T22:47:13.886Z,74.04
2022-12-31T22:50:16.743Z,74.01
2022-12-31T22:53:19.935Z,74.04
2022-12-31T22:56:22.718Z,73.92
2022-12-31T22:59:25.620Z,73.32
2022-12-31T23:02:28.734Z,72.07
2022-12-31T23:05:34.124Z,71.17
2022-12-31T23:08:37.010Z,70.10
2022-12-31T23:11:41.111Z,69.25
2022-12-31T23:15:02.326Z,68.75
2022-12-31T23:18:23.967Z,68.17
2022-12-31T23:21:45.626Z,67.84
2022-12-31T23:24:48.470Z,67.54
2022-12-31T23:27:51.301Z,67.20
2022-12-31T23:30:54.329Z,67.09
2022-12-31T23:33:57.273Z,67.13
2022-12-31T23:37:00.167Z,66.77
2022-12-31T23:40:06.568Z,66.85
2022-12-31T23:43:21.878Z,66.50
2022-12-31T23:46:24.753Z,66.55
2022-12-31T23:49:27.702Z,66.18
2022-12-31T23:52:30.628Z,66.00
2022-12-31T23:55:33.519Z,65.99
2022-12-31T23:58:36.354Z,65.61
